sensor_id;sensor_type;location;lat;lon;timestamp;pressure;altitude;pressure_sealevel;temperature;humidity
35655;BME280;21773;50.010;19.972;2023-02-18T00:02:33;98347.22;;;14.90;62.55
35655;BME280;21773;50.010;19.972;2023-02-18T00:05:36;98342.31;;;14.92;62.30
35655;BME280;21773;50.010;19.972;2023-02-18T00:08:40;98340.38;;;14.83;62.52
35655;BME280;21773;50.010;19.972;2023-02-18T00:11:44;98344.72;;;14.84;62.10
35655;BME280;21773;50.010;19.972;2023-02-18T00:14:47;98339.22;;;14.73;62.19
35655;BME280;21773;50.010;19.972;2023-02-18T00:17:52;98338.66;;;14.71;62.14
35655;BME280;21773;50.010;19.972;2023-02-18T00:20:55;98335.38;;;14.64;62.44
35655;BME280;21773;50.010;19.972;2023-02-18T00:23:59;98326.09;;;14.55;63.01
35655;BME280;21773;50.010;19.972;2023-02-18T00:27:03;98329.75;;;14.39;63.56
35655;BME280;21773;50.010;19.972;2023-02-18T00:30:07;98319.03;;;14.54;63.34
35655;BME280;21773;50.010;19.972;2023-02-18T00:33:12;98325.28;;;14.55;63.31
35655;BME280;21773;50.010;19.972;2023-02-18T00:36:17;98326.88;;;14.51;63.29
35655;BME280;21773;50.010;19.972;2023-02-18T00:39:21;98345.66;;;14.62;62.62
35655;BME280;21773;50.010;19.972;2023-02-18T00:42:25;98338.84;;;14.55;62.77
35655;BME280;21773;50.010;19.972;2023-02-18T00:45:30;98329.31;;;14.52;62.63
35655;BME280;21773;50.010;19.972;2023-02-18T00:48:35;98332.47;;;14.39;62.64
35655;BME280;21773;50.010;19.972;2023-02-18T00:51:38;98301.19;;;14.26;61.66
35655;BME280;21773;50.010;19.972;2023-02-18T00:54:42;98322.53;;;14.50;61.20
35655;BME280;21773;50.010;19.972;2023-02-18T00:57:45;98295.75;;;14.63;60.63
35655;BME280;21773;50.010;19.972;2023-02-18T01:00:49;98332.41;;;14.66;60.18
35655;BME280;21773;50.010;19.972;2023-02-18T01:03:54;98345.97;;;14.66;59.83
35655;BME280;21773;50.010;19.972;2023-02-18T01:06:57;98357.19;;;14.80;59.50
35655;BME280;21773;50.010;19.972;2023-02-18T01:10:02;98332.66;;;14.64;59.39
35655;BME280;21773;50.010;19.972;2023-02-18T01:13:05;98369.16;;;14.84;59.03
35655;BME280;21773;50.010;19.972;2023-02-18T01:16:09;98364.31;;;14.96;58.85
35655;BME280;21773;50.010;19.972;2023-02-18T01:19:14;98375.69;;;14.88;59.75
35655;BME280;21773;50.010;19.972;2023-02-18T01:22:17;98418.66;;;14.64;59.75
35655;BME280;21773;50.010;19.972;2023-02-18T01:25:21;98438.91;;;14.51;59.22
35655;BME280;21773;50.010;19.972;2023-02-18T01:28:25;98435.13;;;14.57;58.33
35655;BME280;21773;50.010;19.972;2023-02-18T01:31:28;98427.72;;;14.48;57.98
35655;BME280;21773;50.010;19.972;2023-02-18T01:34:34;98432.91;;;14.49;56.37
35655;BME280;21773;50.010;19.972;2023-02-18T01:37:37;98424.53;;;14.51;55.33
35655;BME280;21773;50.010;19.972;2023-02-18T01:40:47;98430.09;;;14.39;54.91
35655;BME280;21773;50.010;19.972;2023-02-18T01:44:13;98431.38;;;14.31;55.49
35655;BME280;21773;50.010;19.972;2023-02-18T01:47:19;98429.09;;;14.23;54.78
35655;BME280;21773;50.010;19.972;2023-02-18T01:50:27;98434.81;;;14.27;53.90
35655;BME280;21773;50.010;19.972;2023-02-18T01:53:38;98437.84;;;14.30;53.61
35655;BME280;21773;50.010;19.972;2023-02-18T01:56:48;98456.50;;;14.27;53.49
35655;BME280;21773;50.010;19.972;2023-02-18T01:59:56;98448.25;;;14.12;53.94
35655;BME280;21773;50.010;19.972;2023-02-18T02:03:04;98428.84;;;13.98;53.56
35655;BME280;21773;50.010;19.972;2023-02-18T02:06:14;98447.44;;;13.89;52.74
35655;BME280;21773;50.010;19.972;2023-02-18T02:09:19;98447.91;;;13.81;nan
35655;BME280;21773;50.010;19.972;2023-02-18T02:12:42;98451.28;;;13.94;52.52
35655;BME280;21773;50.010;19.972;2023-02-18T02:15:50;98437.00;;;13.76;52.61
35655;BME280;21773;50.010;19.972;2023-02-18T02:19:09;98450.94;;;13.63;50.36
35655;BME280;21773;50.010;19.972;2023-02-18T02:22:57;98445.56;;;13.68;50.40
35655;BME280;21773;50.010;19.972;2023-02-18T02:26:35;98436.81;;;13.61;48.96
35655;BME280;21773;50.010;19.972;2023-02-18T02:30:27;98444.63;;;13.79;48.55
35655;BME280;21773;50.010;19.972;2023-02-18T02:34:02;98455.09;;;13.71;49.02
35655;BME280;21773;50.010;19.972;2023-02-18T02:37:16;98441.94;;;13.58;50.02
35655;BME280;21773;50.010;19.972;2023-02-18T02:40:30;98457.75;;;13.49;50.15
35655;BME280;21773;50.010;19.972;2023-02-18T02:43:50;98463.13;;;13.44;48.86
35655;BME280;21773;50.010;19.972;2023-02-18T02:47:01;98464.66;;;13.57;48.53
35655;BME280;21773;50.010;19.972;2023-02-18T02:50:09;98471.72;;;13.58;47.32
35655;BME280;21773;50.010;19.972;2023-02-18T02:53:21;98473.53;;;13.52;47.12
35655;BME280;21773;50.010;19.972;2023-02-18T02:56:25;98479.38;;;13.44;46.92
35655;BME280;21773;50.010;19.972;2023-02-18T02:59:29;98477.25;;;13.46;47.33
35655;BME280;21773;50.010;19.972;2023-02-18T03:02:40;98467.31;;;13.35;47.68
35655;BME280;21773;50.010;19.972;2023-02-18T03:06:04;98493.03;;;13.32;48.17
35655;BME280;21773;50.010;19.972;2023-02-18T03:09:16;98486.03;;;13.36;48.35
35655;BME280;21773;50.010;19.972;2023-02-18T03:12:30;98495.53;;;13.39;48.61
35655;BME280;21773;50.010;19.972;2023-02-18T03:15:42;98502.03;;;13.38;48.91
35655;BME280;21773;50.010;19.972;2023-02-18T03:18:53;98517.72;;;13.36;49.29
35655;BME280;21773;50.010;19.972;2023-02-18T03:22:03;98515.16;;;13.46;49.57
35655;BME280;21773;50.010;19.972;2023-02-18T03:25:10;98523.03;;;13.48;50.03
35655;BME280;21773;50.010;19.972;2023-02-18T03:28:18;98515.16;;;13.46;50.18
35655;BME280;21773;50.010;19.972;2023-02-18T03:31:25;98515.81;;;13.36;50.54
35655;BME280;21773;50.010;19.972;2023-02-18T03:34:33;98527.44;;;13.54;50.41
35655;BME280;21773;50.010;19.972;2023-02-18T03:37:42;98521.69;;;13.50;50.48
35655;BME280;21773;50.010;19.972;2023-02-18T03:40:49;98494.47;;;13.40;50.74
35655;BME280;21773;50.010;19.972;2023-02-18T03:43:59;98530.34;;;13.30;51.28
35655;BME280;21773;50.010;19.972;2023-02-18T03:47:03;98535.03;;;13.18;51.51
35655;BME280;21773;50.010;19.972;2023-02-18T03:50:07;98532.06;;;13.20;50.49
35655;BME280;21773;50.010;19.972;2023-02-18T03:53:11;98551.81;;;13.03;50.17
35655;BME280;21773;50.010;19.972;2023-02-18T03:56:16;98540.63;;;13.12;48.68
35655;BME280;21773;50.010;19.972;2023-02-18T03:59:20;98555.59;;;13.02;49.17
35655;BME280;21773;50.010;19.972;2023-02-18T04:02:23;98549.59;;;13.00;49.89
35655;BME280;21773;50.010;19.972;2023-02-18T04:05:26;98553.78;;;12.91;51.06
35655;BME280;21773;50.010;19.972;2023-02-18T04:08:42;98560.09;;;12.97;52.27
35655;BME280;21773;50.010;19.972;2023-02-18T04:11:47;98558.72;;;12.94;53.64
35655;BME280;21773;50.010;19.972;2023-02-18T04:14:50;98566.09;;;12.99;53.69
35655;BME280;21773;50.010;19.972;2023-02-18T04:17:54;98562.56;;;12.98;54.14
35655;BME280;21773;50.010;19.972;2023-02-18T04:20:57;98552.03;;;12.85;54.72
35655;BME280;21773;50.010;19.972;2023-02-18T04:24:01;98546.56;;;12.80;54.91
35655;BME280;21773;50.010;19.972;2023-02-18T04:27:05;98547.81;;;12.89;54.79
35655;BME280;21773;50.010;19.972;2023-02-18T04:30:10;98550.88;;;12.81;54.01
35655;BME280;21773;50.010;19.972;2023-02-18T04:33:14;98553.03;;;12.79;52.55
35655;BME280;21773;50.010;19.972;2023-02-18T04:36:17;98549.19;;;12.75;51.76
35655;BME280;21773;50.010;19.972;2023-02-18T04:39:20;98540.00;;;12.48;50.42
35655;BME280;21773;50.010;19.972;2023-02-18T04:42:25;98545.84;;;12.56;49.66
35655;BME280;21773;50.010;19.972;2023-02-18T04:45:29;98547.16;;;12.54;49.53
35655;BME280;21773;50.010;19.972;2023-02-18T04:48:32;98540.34;;;12.51;46.97
35655;BME280;21773;50.010;19.972;2023-02-18T04:51:35;98552.16;;;12.45;44.33
35655;BME280;21773;50.010;19.972;2023-02-18T04:54:39;98543.13;;;12.40;43.20
35655;BME280;21773;50.010;19.972;2023-02-18T04:57:44;98565.38;;;12.30;41.50
35655;BME280;21773;50.010;19.972;2023-02-18T05:00:47;98552.28;;;12.39;41.60
35655;BME280;21773;50.010;19.972;2023-02-18T05:03:51;98560.41;;;12.39;42.10
35655;BME280;21773;50.010;19.972;2023-02-18T05:06:54;98572.13;;;12.44;42.66
35655;BME280;21773;50.010;19.972;2023-02-18T05:09:58;98564.97;;;12.38;43.62
35655;BME280;21773;50.010;19.972;2023-02-18T05:13:02;98568.16;;;12.35;42.13
35655;BME280;21773;50.010;19.972;2023-02-18T05:16:06;98567.19;;;12.41;41.48
35655;BME280;21773;50.010;19.972;2023-02-18T05:19:13;98561.34;;;12.33;39.55
35655;BME280;21773;50.010;19.972;2023-02-18T05:22:16;98573.19;;;12.43;39.14
35655;BME280;21773;50.010;19.972;2023-02-18T05:25:20;98574.41;;;12.36;38.55
35655;BME280;21773;50.010;19.972;2023-02-18T05:28:25;98574.41;;;12.36;38.10
35655;BME280;21773;50.010;19.972;2023-02-18T05:31:28;98573.00;;;12.33;37.33
35655;BME280;21773;50.010;19.972;2023-02-18T05:34:31;98572.84;;;12.40;38.25
35655;BME280;21773;50.010;19.972;2023-02-18T05:37:35;98580.28;;;12.33;38.28
35655;BME280;21773;50.010;19.972;2023-02-18T05:40:41;98578.00;;;12.41;38.39
35655;BME280;21773;50.010;19.972;2023-02-18T05:43:46;98576.03;;;12.37;38.63
35655;BME280;21773;50.010;19.972;2023-02-18T05:47:08;98589.75;;;12.47;38.89
35655;BME280;21773;50.010;19.972;2023-02-18T05:50:12;98590.63;;;12.36;38.55
35655;BME280;21773;50.010;19.972;2023-02-18T05:53:16;98586.78;;;12.20;36.94
35655;BME280;21773;50.010;19.972;2023-02-18T05:56:19;98598.31;;;12.15;35.39
35655;BME280;21773;50.010;19.972;2023-02-18T05:59:24;98595.03;;;12.13;34.79
35655;BME280;21773;50.010;19.972;2023-02-18T06:02:27;98605.59;;;12.15;33.58
35655;BME280;21773;50.010;19.972;2023-02-18T06:05:31;98614.63;;;12.21;34.06
35655;BME280;21773;50.010;19.972;2023-02-18T06:08:34;98613.66;;;12.27;33.99
35655;BME280;21773;50.010;19.972;2023-02-18T06:11:38;98601.22;;;12.26;33.76
35655;BME280;21773;50.010;19.972;2023-02-18T06:14:43;98597.66;;;12.37;33.39
35655;BME280;21773;50.010;19.972;2023-02-18T06:17:46;98611.25;;;12.42;32.95
35655;BME280;21773;50.010;19.972;2023-02-18T06:20:49;98611.63;;;12.45;33.64
35655;BME280;21773;50.010;19.972;2023-02-18T06:23:53;98607.72;;;12.53;33.51
35655;BME280;21773;50.010;19.972;2023-02-18T06:26:56;98611.31;;;12.70;32.72
35655;BME280;21773;50.010;19.972;2023-02-18T06:30:01;98599.56;;;12.65;31.68
35655;BME280;21773;50.010;19.972;2023-02-18T06:33:05;98598.34;;;12.72;32.05
35655;BME280;21773;50.010;19.972;2023-02-18T06:36:10;98602.78;;;12.78;32.07
35655;BME280;21773;50.010;19.972;2023-02-18T06:39:13;98617.56;;;12.87;32.16
35655;BME280;21773;50.010;19.972;2023-02-18T06:42:17;98617.16;;;12.95;32.72
35655;BME280;21773;50.010;19.972;2023-02-18T06:45:21;98621.59;;;12.85;33.29
35655;BME280;21773;50.010;19.972;2023-02-18T06:48:25;98617.97;;;12.79;33.05
35655;BME280;21773;50.010;19.972;2023-02-18T06:51:28;98623.00;;;12.76;32.52
35655;BME280;21773;50.010;19.972;2023-02-18T06:54:32;98626.19;;;13.01;32.45
35655;BME280;21773;50.010;19.972;2023-02-18T06:57:36;98625.72;;;13.04;31.80
35655;BME280;21773;50.010;19.972;2023-02-18T07:00:41;98619.19;;;13.17;31.18
35655;BME280;21773;50.010;19.972;2023-02-18T07:03:44;98632.22;;;13.20;31.60
35655;BME280;21773;50.010;19.972;2023-02-18T07:06:51;98627.88;;;13.35;31.64
35655;BME280;21773;50.010;19.972;2023-02-18T07:09:54;98629.97;;;13.28;31.53
35655;BME280;21773;50.010;19.972;2023-02-18T07:12:57;98637.16;;;13.23;31.16
35655;BME280;21773;50.010;19.972;2023-02-18T07:16:02;98635.84;;;13.25;31.62
35655;BME280;21773;50.010;19.972;2023-02-18T07:19:06;98645.38;;;13.44;31.37
35655;BME280;21773;50.010;19.972;2023-02-18T07:22:09;98655.47;;;13.66;30.50
35655;BME280;21773;50.010;19.972;2023-02-18T07:25:13;98653.44;;;13.73;30.27
35655;BME280;21773;50.010;19.972;2023-02-18T07:28:17;98656.63;;;13.86;30.92
35655;BME280;21773;50.010;19.972;2023-02-18T07:31:21;98646.16;;;13.78;31.01
35655;BME280;21773;50.010;19.972;2023-02-18T07:34:25;98646.09;;;13.73;30.85
35655;BME280;21773;50.010;19.972;2023-02-18T07:37:28;98640.91;;;13.88;31.12
35655;BME280;21773;50.010;19.972;2023-02-18T07:40:32;98633.78;;;13.82;31.20
35655;BME280;21773;50.010;19.972;2023-02-18T07:43:35;98647.06;;;13.84;31.74
35655;BME280;21773;50.010;19.972;2023-02-18T07:46:40;98638.13;;;13.83;32.13
35655;BME280;21773;50.010;19.972;2023-02-18T07:49:44;98635.91;;;13.80;32.52
35655;BME280;21773;50.010;19.972;2023-02-18T07:52:47;98640.28;;;13.65;32.26
35655;BME280;21773;50.010;19.972;2023-02-18T07:55:51;98619.66;;;13.64;31.63
35655;BME280;21773;50.010;19.972;2023-02-18T07:58:54;98616.09;;;13.58;31.23
35655;BME280;21773;50.010;19.972;2023-02-18T08:01:59;98611.22;;;13.77;31.16
35655;BME280;21773;50.010;19.972;2023-02-18T08:05:02;98600.91;;;13.57;31.27
35655;BME280;21773;50.010;19.972;2023-02-18T08:08:05;98620.41;;;13.59;31.55
35655;BME280;21773;50.010;19.972;2023-02-18T08:11:09;98635.53;;;13.72;30.93
35655;BME280;21773;50.010;19.972;2023-02-18T08:14:20;98614.91;;;13.71;30.73
35655;BME280;21773;50.010;19.972;2023-02-18T08:17:25;98633.22;;;13.64;30.33
35655;BME280;21773;50.010;19.972;2023-02-18T08:20:28;98637.25;;;13.61;30.04
35655;BME280;21773;50.010;19.972;2023-02-18T08:23:32;98645.97;;;13.63;30.54
35655;BME280;21773;50.010;19.972;2023-02-18T08:26:35;98637.75;;;13.58;30.79
35655;BME280;21773;50.010;19.972;2023-02-18T08:29:38;98606.50;;;13.34;30.43
35655;BME280;21773;50.010;19.972;2023-02-18T08:32:43;98602.22;;;13.38;30.72
35655;BME280;21773;50.010;19.972;2023-02-18T08:35:48;98602.03;;;13.44;30.93
35655;BME280;21773;50.010;19.972;2023-02-18T08:38:52;98643.00;;;13.65;30.38
35655;BME280;21773;50.010;19.972;2023-02-18T08:41:56;98635.84;;;13.75;30.27
35655;BME280;21773;50.010;19.972;2023-02-18T08:44:59;98608.63;;;13.49;29.97
35655;BME280;21773;50.010;19.972;2023-02-18T08:48:04;98647.50;;;13.76;29.91
35655;BME280;21773;50.010;19.972;2023-02-18T08:51:21;98632.16;;;13.81;29.57
35655;BME280;21773;50.010;19.972;2023-02-18T08:54:25;98631.03;;;13.99;30.24
35655;BME280;21773;50.010;19.972;2023-02-18T08:57:28;98645.78;;;14.08;29.75
35655;BME280;21773;50.010;19.972;2023-02-18T09:00:32;98643.50;;;14.17;29.44
35655;BME280;21773;50.010;19.972;2023-02-18T09:03:37;98644.00;;;14.36;29.53
35655;BME280;21773;50.010;19.972;2023-02-18T09:06:40;98645.72;;;14.42;29.15
35655;BME280;21773;50.010;19.972;2023-02-18T09:09:44;98648.72;;;14.40;29.31
35655;BME280;21773;50.010;19.972;2023-02-18T09:12:47;98631.63;;;14.23;28.51
35655;BME280;21773;50.010;19.972;2023-02-18T09:15:58;98627.22;;;14.17;29.46
35655;BME280;21773;50.010;19.972;2023-02-18T09:19:03;98639.28;;;14.26;29.85
35655;BME280;21773;50.010;19.972;2023-02-18T09:22:07;98650.44;;;14.29;29.61
35655;BME280;21773;50.010;19.972;2023-02-18T09:25:10;98615.56;;;14.16;29.79
35655;BME280;21773;50.010;19.972;2023-02-18T09:28:13;98657.06;;;14.17;29.36
35655;BME280;21773;50.010;19.972;2023-02-18T09:31:19;98642.09;;;14.14;30.26
35655;BME280;21773;50.010;19.972;2023-02-18T09:34:24;98654.06;;;14.18;30.33
35655;BME280;21773;50.010;19.972;2023-02-18T09:37:27;98632.91;;;13.99;30.58
35655;BME280;21773;50.010;19.972;2023-02-18T09:40:33;98658.25;;;14.26;30.70
35655;BME280;21773;50.010;19.972;2023-02-18T09:43:39;98663.25;;;14.34;31.30
35655;BME280;21773;50.010;19.972;2023-02-18T09:46:49;98652.56;;;14.27;30.67
35655;BME280;21773;50.010;19.972;2023-02-18T09:49:57;98673.38;;;14.22;30.82
35655;BME280;21773;50.010;19.972;2023-02-18T09:53:03;98651.69;;;14.22;30.92
35655;BME280;21773;50.010;19.972;2023-02-18T09:56:07;98642.38;;;14.35;31.00
35655;BME280;21773;50.010;19.972;2023-02-18T09:59:16;98637.19;;;14.33;31.10
35655;BME280;21773;50.010;19.972;2023-02-18T10:02:20;98636.56;;;14.26;31.49
35655;BME280;21773;50.010;19.972;2023-02-18T10:05:26;98625.13;;;14.24;31.74
35655;BME280;21773;50.010;19.972;2023-02-18T10:08:35;98603.38;;;14.19;32.47
35655;BME280;21773;50.010;19.972;2023-02-18T10:11:40;98622.19;;;14.25;32.32
35655;BME280;21773;50.010;19.972;2023-02-18T10:14:47;98615.84;;;14.37;32.89
35655;BME280;21773;50.010;19.972;2023-02-18T10:17:51;98602.03;;;14.38;32.88
35655;BME280;21773;50.010;19.972;2023-02-18T10:21:04;98595.94;;;14.53;32.49
35655;BME280;21773;50.010;19.972;2023-02-18T10:24:27;98603.56;;;14.34;31.66
35655;BME280;21773;50.010;19.972;2023-02-18T10:27:33;98596.47;;;14.50;31.37
35655;BME280;21773;50.010;19.972;2023-02-18T10:30:41;98572.56;;;14.47;31.00
35655;BME280;21773;50.010;19.972;2023-02-18T10:33:46;98577.25;;;14.51;31.21
35655;BME280;21773;50.010;19.972;2023-02-18T10:36:55;98568.06;;;14.36;31.38
35655;BME280;21773;50.010;19.972;2023-02-18T10:40:07;98580.56;;;14.15;31.75
35655;BME280;21773;50.010;19.972;2023-02-18T10:43:19;98608.44;;;14.10;32.21
35655;BME280;21773;50.010;19.972;2023-02-18T10:46:28;98580.81;;;13.92;32.96
35655;BME280;21773;50.010;19.972;2023-02-18T10:49:55;98591.44;;;13.98;33.04
35655;BME280;21773;50.010;19.972;2023-02-18T10:53:03;98594.59;;;13.90;33.08
35655;BME280;21773;50.010;19.972;2023-02-18T10:56:31;98580.53;;;13.93;33.73
35655;BME280;21773;50.010;19.972;2023-02-18T10:59:36;98587.06;;;13.92;33.85
35655;BME280;21773;50.010;19.972;2023-02-18T11:02:40;98566.38;;;13.86;34.26
35655;BME280;21773;50.010;19.972;2023-02-18T11:05:44;98575.38;;;14.13;34.48
35655;BME280;21773;50.010;19.972;2023-02-18T11:08:52;98572.34;;;13.88;34.59
35655;BME280;21773;50.010;19.972;2023-02-18T11:12:04;98561.19;;;13.84;35.05
35655;BME280;21773;50.010;19.972;2023-02-18T11:15:17;98569.47;;;13.95;35.70
35655;BME280;21773;50.010;19.972;2023-02-18T11:18:29;98542.81;;;13.86;35.92
35655;BME280;21773;50.010;19.972;2023-02-18T11:21:35;98559.94;;;13.92;36.23
35655;BME280;21773;50.010;19.972;2023-02-18T11:24:40;98550.03;;;14.03;36.33
35655;BME280;21773;50.010;19.972;2023-02-18T11:27:51;98562.41;;;14.15;36.32
35655;BME280;21773;50.010;19.972;2023-02-18T11:30:59;98548.38;;;14.40;36.15
35655;BME280;21773;50.010;19.972;2023-02-18T11:34:04;98548.47;;;14.50;35.92
35655;BME280;21773;50.010;19.972;2023-02-18T11:37:09;98543.53;;;14.47;36.07
35655;BME280;21773;50.010;19.972;2023-02-18T11:40:23;98555.03;;;14.54;36.24
35655;BME280;21773;50.010;19.972;2023-02-18T11:43:29;98540.97;;;14.36;36.97
35655;BME280;21773;50.010;19.972;2023-02-18T11:46:33;98527.28;;;14.04;38.17
35655;BME280;21773;50.010;19.972;2023-02-18T11:49:36;98534.41;;;14.10;38.69
35655;BME280;21773;50.010;19.972;2023-02-18T11:52:41;98529.69;;;14.22;39.24
35655;BME280;21773;50.010;19.972;2023-02-18T11:55:53;98518.44;;;14.13;39.57
35655;BME280;21773;50.010;19.972;2023-02-18T11:58:58;98521.47;;;13.73;40.60
35655;BME280;21773;50.010;19.972;2023-02-18T12:02:12;98523.25;;;13.84;40.89
35655;BME280;21773;50.010;19.972;2023-02-18T12:05:28;98528.47;;;13.69;41.69
35655;BME280;21773;50.010;19.972;2023-02-18T12:08:39;98530.50;;;13.40;42.69
35655;BME280;21773;50.010;19.972;2023-02-18T12:11:53;98521.47;;;13.35;43.34
35655;BME280;21773;50.010;19.972;2023-02-18T12:15:00;98525.31;;;13.39;43.32
35655;BME280;21773;50.010;19.972;2023-02-18T12:18:24;98521.41;;;13.30;44.08
35655;BME280;21773;50.010;19.972;2023-02-18T12:21:35;98519.50;;;13.30;44.55
35655;BME280;21773;50.010;19.972;2023-02-18T12:25:03;98517.19;;;13.39;44.49
35655;BME280;21773;50.010;19.972;2023-02-18T12:28:31;98505.31;;;13.40;45.12
35655;BME280;21773;50.010;19.972;2023-02-18T12:31:53;98497.53;;;13.27;45.00
35655;BME280;21773;50.010;19.972;2023-02-18T12:35:14;98496.22;;;13.29;45.17
35655;BME280;21773;50.010;19.972;2023-02-18T12:38:36;98499.81;;;13.35;45.27
35655;BME280;21773;50.010;19.972;2023-02-18T12:41:52;98500.84;;;13.29;45.43
35655;BME280;21773;50.010;19.972;2023-02-18T12:45:12;98459.06;;;13.08;45.83
35655;BME280;21773;50.010;19.972;2023-02-18T12:48:46;98468.50;;;13.22;45.79
35655;BME280;21773;50.010;19.972;2023-02-18T12:52:01;98453.63;;;13.41;45.98
35655;BME280;21773;50.010;19.972;2023-02-18T12:55:29;98451.56;;;13.49;46.00
35655;BME280;21773;50.010;19.972;2023-02-18T12:58:45;98444.38;;;13.59;45.75
35655;BME280;21773;50.010;19.972;2023-02-18T13:01:57;98441.78;;;13.69;46.22
35655;BME280;21773;50.010;19.972;2023-02-18T13:05:09;98434.47;;;13.70;46.19
35655;BME280;21773;50.010;19.972;2023-02-18T13:08:24;98384.59;;;13.44;46.76
35655;BME280;21773;50.010;19.972;2023-02-18T13:11:37;98402.91;;;13.59;47.26
35655;BME280;21773;50.010;19.972;2023-02-18T13:14:47;98401.03;;;13.59;47.81
35655;BME280;21773;50.010;19.972;2023-02-18T13:17:56;98401.66;;;13.66;47.98
35655;BME280;21773;50.010;19.972;2023-02-18T13:21:03;98385.72;;;13.70;47.97
35655;BME280;21773;50.010;19.972;2023-02-18T13:24:11;98389.44;;;13.64;48.64
35655;BME280;21773;50.010;19.972;2023-02-18T13:27:20;98390.41;;;13.53;48.92
35655;BME280;21773;50.010;19.972;2023-02-18T13:30:30;98366.34;;;13.34;48.89
35655;BME280;21773;50.010;19.972;2023-02-18T13:33:45;98376.84;;;13.31;49.47
35655;BME280;21773;50.010;19.972;2023-02-18T13:36:56;98362.81;;;13.12;49.48
35655;BME280;21773;50.010;19.972;2023-02-18T13:40:02;98352.19;;;13.11;49.33
35655;BME280;21773;50.010;19.972;2023-02-18T13:43:20;98343.63;;;12.97;50.05
35655;BME280;21773;50.010;19.972;2023-02-18T13:46:30;98355.88;;;12.83;50.19
35655;BME280;21773;50.010;19.972;2023-02-18T13:49:37;98344.75;;;12.79;50.51
35655;BME280;21773;50.010;19.972;2023-02-18T13:52:41;98335.97;;;12.72;50.77
35655;BME280;21773;50.010;19.972;2023-02-18T13:56:00;98335.50;;;12.58;50.81
35655;BME280;21773;50.010;19.972;2023-02-18T13:59:09;98316.91;;;12.62;50.92
35655;BME280;21773;50.010;19.972;2023-02-18T14:02:38;98313.66;;;12.43;51.36
35655;BME280;21773;50.010;19.972;2023-02-18T14:05:59;98301.69;;;12.39;51.49
35655;BME280;21773;50.010;19.972;2023-02-18T14:09:34;98289.09;;;12.45;51.61
35655;BME280;21773;50.010;19.972;2023-02-18T14:12:40;98272.94;;;12.50;51.58
35655;BME280;21773;50.010;19.972;2023-02-18T14:15:52;98274.06;;;12.54;51.74
35655;BME280;21773;50.010;19.972;2023-02-18T14:18:59;98248.69;;;12.55;51.49
35655;BME280;21773;50.010;19.972;2023-02-18T14:22:26;98241.25;;;12.45;51.92
35655;BME280;21773;50.010;19.972;2023-02-18T14:25:36;98239.91;;;12.48;52.09
35655;BME280;21773;50.010;19.972;2023-02-18T14:28:43;98234.03;;;12.51;51.99
35655;BME280;21773;50.010;19.972;2023-02-18T14:31:53;98229.84;;;12.43;52.56
35655;BME280;21773;50.010;19.972;2023-02-18T14:35:07;98211.50;;;12.45;52.56
35655;BME280;21773;50.010;19.972;2023-02-18T14:38:28;98211.00;;;12.48;52.54
35655;BME280;21773;50.010;19.972;2023-02-18T14:41:44;98198.66;;;12.57;52.92
35655;BME280;21773;50.010;19.972;2023-02-18T14:45:04;98190.06;;;12.61;53.31
35655;BME280;21773;50.010;19.972;2023-02-18T14:48:23;98191.50;;;12.68;53.02
35655;BME280;21773;50.010;19.972;2023-02-18T14:51:34;98177.41;;;12.66;53.61
35655;BME280;21773;50.010;19.972;2023-02-18T14:54:40;98157.34;;;12.62;53.78
35655;BME280;21773;50.010;19.972;2023-02-18T14:57:47;98156.66;;;12.72;53.83
35655;BME280;21773;50.010;19.972;2023-02-18T15:00:51;98159.94;;;12.74;53.94
35655;BME280;21773;50.010;19.972;2023-02-18T15:03:55;98148.59;;;12.77;54.42
35655;BME280;21773;50.010;19.972;2023-02-18T15:07:00;98151.63;;;12.80;54.20
35655;BME280;21773;50.010;19.972;2023-02-18T15:10:12;98136.19;;;12.81;54.44
35655;BME280;21773;50.010;19.972;2023-02-18T15:13:18;98123.97;;;12.73;54.89
35655;BME280;21773;50.010;19.972;2023-02-18T15:16:28;98128.31;;;12.74;55.25
35655;BME280;21773;50.010;19.972;2023-02-18T15:19:37;98112.91;;;12.53;55.17
35655;BME280;21773;50.010;19.972;2023-02-18T15:22:42;98127.13;;;12.65;55.76
35655;BME280;21773;50.010;19.972;2023-02-18T15:25:52;98107.69;;;12.68;55.85
35655;BME280;21773;50.010;19.972;2023-02-18T15:28:59;98094.91;;;12.64;55.44
35655;BME280;21773;50.010;19.972;2023-02-18T15:32:14;98090.53;;;12.57;55.83
35655;BME280;21773;50.010;19.972;2023-02-18T15:35:20;98073.53;;;12.62;56.17
35655;BME280;21773;50.010;19.972;2023-02-18T15:38:25;98071.59;;;12.57;56.05
35655;BME280;21773;50.010;19.972;2023-02-18T15:41:31;98063.72;;;12.56;56.39
35655;BME280;21773;50.010;19.972;2023-02-18T15:44:35;98050.72;;;12.53;56.67
35655;BME280;21773;50.010;19.972;2023-02-18T15:47:41;98049.66;;;12.54;56.79
35655;BME280;21773;50.010;19.972;2023-02-18T15:50:50;98024.16;;;12.45;57.45
35655;BME280;21773;50.010;19.972;2023-02-18T15:53:57;98019.19;;;12.37;57.72
35655;BME280;21773;50.010;19.972;2023-02-18T15:57:04;97999.03;;;12.23;58.20
35655;BME280;21773;50.010;19.972;2023-02-18T16:00:13;98006.59;;;12.21;58.50
35655;BME280;21773;50.010;19.972;2023-02-18T16:03:21;97997.03;;;12.13;58.81
35655;BME280;21773;50.010;19.972;2023-02-18T16:06:26;97992.22;;;12.15;59.03
35655;BME280;21773;50.010;19.972;2023-02-18T16:09:32;97985.22;;;12.19;58.95
35655;BME280;21773;50.010;19.972;2023-02-18T16:12:38;97976.53;;;12.17;59.07
35655;BME280;21773;50.010;19.972;2023-02-18T16:15:44;97985.47;;;12.18;59.54
35655;BME280;21773;50.010;19.972;2023-02-18T16:18:48;97980.00;;;12.12;59.77
35655;BME280;21773;50.010;19.972;2023-02-18T16:21:51;97976.25;;;12.13;60.11
35655;BME280;21773;50.010;19.972;2023-02-18T16:24:56;97962.97;;;12.12;60.62